sensor_id;sensor_type;location;lat;lon;timestamp;temperature;humidity
21592;DHT22;10958;50.892;3.992;2023-07-30T00:00:00;16.60;99.90
21592;DHT22;10958;50.892;3.992;2023-07-30T00:02:25;16.50;99.90
21592;DHT22;10958;50.892;3.992;2023-07-30T00:04:51;16.50;99.90
21592;DHT22;10958;50.892;3.992;2023-07-30T00:07:17;16.50;99.90
21592;DHT22;10958;50.892;3.992;2023-07-30T00:09:43;16.50;99.90
21592;DHT22;10958;50.892;3.992;2023-07-30T00:12:09;16.40;99.90
21592;DHT22;10958;50.892;3.992;2023-07-30T00:14:35;16.50;99.90
21592;DHT22;10958;50.892;3.992;2023-07-30T00:17:01;16.60;99.90
21592;DHT22;10958;50.892;3.992;2023-07-30T00:19:28;16.60;99.90
21592;DHT22;10958;50.892;3.992;2023-07-30T00:21:54;16.50;99.90
21592;DHT22;10958;50.892;3.992;2023-07-30T00:24:20;16.50;99.90
21592;DHT22;10958;50.892;3.992;2023-07-30T00:26:45;16.40;99.90
21592;DHT22;10958;50.892;3.992;2023-07-30T00:29:12;16.40;99.90
21592;DHT22;10958;50.892;3.992;2023-07-30T00:31:38;16.50;99.90
21592;DHT22;10958;50.892;3.992;2023-07-30T00:34:05;16.50;99.90
21592;DHT22;10958;50.892;3.992;2023-07-30T00:36:31;16.40;99.90
21592;DHT22;10958;50.892;3.992;2023-07-30T00:38:57;16.40;99.90
21592;DHT22;10958;50.892;3.992;2023-07-30T00:41:22;16.30;99.90
21592;DHT22;10958;50.892;3.992;2023-07-30T00:43:48;16.40;99.90
21592;DHT22;10958;50.892;3.992;2023-07-30T00:46:14;16.40;99.90
21592;DHT22;10958;50.892;3.992;2023-07-30T00:48:40;16.50;99.90
21592;DHT22;10958;50.892;3.992;2023-07-30T00:51:06;16.60;99.90
21592;DHT22;10958;50.892;3.992;2023-07-30T00:53:35;16.60;99.90
21592;DHT22;10958;50.892;3.992;2023-07-30T00:56:03;16.50;99.90
21592;DHT22;10958;50.892;3.992;2023-07-30T00:58:31;16.50;99.90
21592;DHT22;10958;50.892;3.992;2023-07-30T01:01:00;16.50;99.90
21592;DHT22;10958;50.892;3.992;2023-07-30T01:03:27;16.60;99.90
21592;DHT22;10958;50.892;3.992;2023-07-30T01:05:53;16.60;99.90
21592;DHT22;10958;50.892;3.992;2023-07-30T01:08:19;16.60;99.90
21592;DHT22;10958;50.892;3.992;2023-07-30T01:10:45;16.70;99.90
21592;DHT22;10958;50.892;3.992;2023-07-30T01:13:12;16.60;99.90
21592;DHT22;10958;50.892;3.992;2023-07-30T01:15:39;16.80;99.90
21592;DHT22;10958;50.892;3.992;2023-07-30T01:18:05;16.80;99.90
21592;DHT22;10958;50.892;3.992;2023-07-30T01:20:31;16.90;99.90
21592;DHT22;10958;50.892;3.992;2023-07-30T01:23:01;16.90;99.90
21592;DHT22;10958;50.892;3.992;2023-07-30T01:25:30;16.90;99.90
21592;DHT22;10958;50.892;3.992;2023-07-30T01:28:00;16.80;99.90
21592;DHT22;10958;50.892;3.992;2023-07-30T01:30:34;16.70;99.90
21592;DHT22;10958;50.892;3.992;2023-07-30T01:33:05;16.80;99.90
21592;DHT22;10958;50.892;3.992;2023-07-30T01:35:32;16.80;99.90
21592;DHT22;10958;50.892;3.992;2023-07-30T01:37:58;16.90;99.90
21592;DHT22;10958;50.892;3.992;2023-07-30T01:40:26;16.90;99.90
21592;DHT22;10958;50.892;3.992;2023-07-30T01:42:52;16.80;99.90
21592;DHT22;10958;50.892;3.992;2023-07-30T01:45:20;16.80;99.90
21592;DHT22;10958;50.892;3.992;2023-07-30T01:47:46;16.90;99.90
21592;DHT22;10958;50.892;3.992;2023-07-30T01:50:13;16.90;99.90
21592;DHT22;10958;50.892;3.992;2023-07-30T01:52:39;16.90;99.90
21592;DHT22;10958;50.892;3.992;2023-07-30T01:55:05;16.90;99.90
21592;DHT22;10958;50.892;3.992;2023-07-30T01:57:31;16.90;99.90
21592;DHT22;10958;50.892;3.992;2023-07-30T01:59:57;16.70;99.90
21592;DHT22;10958;50.892;3.992;2023-07-30T02:02:23;16.70;99.90
21592;DHT22;10958;50.892;3.992;2023-07-30T02:04:48;16.70;99.90
21592;DHT22;10958;50.892;3.992;2023-07-30T02:07:14;16.60;99.90
21592;DHT22;10958;50.892;3.992;2023-07-30T02:09:40;16.60;99.90
21592;DHT22;10958;50.892;3.992;2023-07-30T02:12:08;16.70;99.90
21592;DHT22;10958;50.892;3.992;2023-07-30T02:14:34;16.70;99.90
21592;DHT22;10958;50.892;3.992;2023-07-30T02:16:59;16.70;99.90
21592;DHT22;10958;50.892;3.992;2023-07-30T02:19:25;16.80;99.90
21592;DHT22;10958;50.892;3.992;2023-07-30T02:21:53;16.70;99.90
21592;DHT22;10958;50.892;3.992;2023-07-30T02:24:19;16.60;99.90
21592;DHT22;10958;50.892;3.992;2023-07-30T02:26:47;16.70;99.90
21592;DHT22;10958;50.892;3.992;2023-07-30T02:29:16;16.60;99.90
21592;DHT22;10958;50.892;3.992;2023-07-30T02:31:44;16.70;99.90
21592;DHT22;10958;50.892;3.992;2023-07-30T02:34:13;16.60;99.90
21592;DHT22;10958;50.892;3.992;2023-07-30T02:36:38;16.60;99.90
21592;DHT22;10958;50.892;3.992;2023-07-30T02:39:06;16.50;99.90
21592;DHT22;10958;50.892;3.992;2023-07-30T02:41:32;16.60;99.90
21592;DHT22;10958;50.892;3.992;2023-07-30T02:43:57;16.70;99.90
21592;DHT22;10958;50.892;3.992;2023-07-30T02:46:25;16.50;99.90
21592;DHT22;10958;50.892;3.992;2023-07-30T02:48:51;16.50;99.90
21592;DHT22;10958;50.892;3.992;2023-07-30T02:51:17;16.50;99.90
21592;DHT22;10958;50.892;3.992;2023-07-30T02:53:45;16.50;99.90
21592;DHT22;10958;50.892;3.992;2023-07-30T02:56:11;16.60;99.90
21592;DHT22;10958;50.892;3.992;2023-07-30T02:58:37;16.50;99.90
21592;DHT22;10958;50.892;3.992;2023-07-30T03:01:07;16.40;99.90
21592;DHT22;10958;50.892;3.992;2023-07-30T03:03:35;16.30;99.90
21592;DHT22;10958;50.892;3.992;2023-07-30T03:06:03;16.30;99.90
21592;DHT22;10958;50.892;3.992;2023-07-30T03:08:29;16.30;99.90
21592;DHT22;10958;50.892;3.992;2023-07-30T03:10:58;16.40;99.90
21592;DHT22;10958;50.892;3.992;2023-07-30T03:13:24;16.40;99.90
21592;DHT22;10958;50.892;3.992;2023-07-30T03:15:49;16.40;99.90
21592;DHT22;10958;50.892;3.992;2023-07-30T03:18:17;16.40;99.90
21592;DHT22;10958;50.892;3.992;2023-07-30T03:20:44;16.40;99.90
21592;DHT22;10958;50.892;3.992;2023-07-30T03:23:14;16.40;99.90
21592;DHT22;10958;50.892;3.992;2023-07-30T03:25:40;16.40;99.90
21592;DHT22;10958;50.892;3.992;2023-07-30T03:28:07;16.30;99.90
21592;DHT22;10958;50.892;3.992;2023-07-30T03:30:33;16.20;99.90
21592;DHT22;10958;50.892;3.992;2023-07-30T03:32:59;16.30;99.90
21592;DHT22;10958;50.892;3.992;2023-07-30T03:35:24;16.20;99.90
21592;DHT22;10958;50.892;3.992;2023-07-30T03:37:53;16.00;99.90
21592;DHT22;10958;50.892;3.992;2023-07-30T03:40:19;16.00;99.90
21592;DHT22;10958;50.892;3.992;2023-07-30T03:42:45;16.00;99.90
21592;DHT22;10958;50.892;3.992;2023-07-30T03:45:13;15.90;99.90
21592;DHT22;10958;50.892;3.992;2023-07-30T03:47:39;15.90;99.90
21592;DHT22;10958;50.892;3.992;2023-07-30T03:50:08;15.90;99.90
21592;DHT22;10958;50.892;3.992;2023-07-30T03:52:34;16.00;99.90
21592;DHT22;10958;50.892;3.992;2023-07-30T03:54:59;15.90;99.90
21592;DHT22;10958;50.892;3.992;2023-07-30T03:57:25;16.00;99.90
21592;DHT22;10958;50.892;3.992;2023-07-30T03:59:53;16.10;99.90
21592;DHT22;10958;50.892;3.992;2023-07-30T04:02:19;16.20;99.90
21592;DHT22;10958;50.892;3.992;2023-07-30T04:04:46;16.20;99.90
21592;DHT22;10958;50.892;3.992;2023-07-30T04:07:15;16.10;99.90
21592;DHT22;10958;50.892;3.992;2023-07-30T04:09:41;16.20;99.90
21592;DHT22;10958;50.892;3.992;2023-07-30T04:12:07;16.20;99.90
21592;DHT22;10958;50.892;3.992;2023-07-30T04:14:33;16.20;99.90
21592;DHT22;10958;50.892;3.992;2023-07-30T04:16:58;16.10;99.90
21592;DHT22;10958;50.892;3.992;2023-07-30T04:19:27;16.10;99.90
21592;DHT22;10958;50.892;3.992;2023-07-30T04:21:53;16.10;99.90
21592;DHT22;10958;50.892;3.992;2023-07-30T04:24:23;16.20;99.90
21592;DHT22;10958;50.892;3.992;2023-07-30T04:26:51;16.20;99.90
21592;DHT22;10958;50.892;3.992;2023-07-30T04:29:17;16.20;99.90
21592;DHT22;10958;50.892;3.992;2023-07-30T04:31:43;16.10;99.90
21592;DHT22;10958;50.892;3.992;2023-07-30T04:34:09;16.10;99.90
21592;DHT22;10958;50.892;3.992;2023-07-30T04:36:40;16.20;99.90
21592;DHT22;10958;50.892;3.992;2023-07-30T04:39:08;16.30;99.90
21592;DHT22;10958;50.892;3.992;2023-07-30T04:41:33;16.30;99.90
21592;DHT22;10958;50.892;3.992;2023-07-30T04:44:00;16.20;99.90
21592;DHT22;10958;50.892;3.992;2023-07-30T04:46:25;16.20;99.90
21592;DHT22;10958;50.892;3.992;2023-07-30T04:48:53;16.20;99.90
21592;DHT22;10958;50.892;3.992;2023-07-30T04:51:19;16.20;99.90
21592;DHT22;10958;50.892;3.992;2023-07-30T04:53:44;16.30;99.90
21592;DHT22;10958;50.892;3.992;2023-07-30T04:56:10;16.40;99.90
21592;DHT22;10958;50.892;3.992;2023-07-30T04:58:36;16.50;99.90
21592;DHT22;10958;50.892;3.992;2023-07-30T05:01:01;16.40;99.90
21592;DHT22;10958;50.892;3.992;2023-07-30T05:03:29;16.40;99.90
21592;DHT22;10958;50.892;3.992;2023-07-30T05:05:55;16.60;99.90
21592;DHT22;10958;50.892;3.992;2023-07-30T05:08:23;16.60;99.90
21592;DHT22;10958;50.892;3.992;2023-07-30T05:10:50;16.60;99.90
21592;DHT22;10958;50.892;3.992;2023-07-30T05:13:15;16.50;99.90
21592;DHT22;10958;50.892;3.992;2023-07-30T05:15:41;16.40;99.90
21592;DHT22;10958;50.892;3.992;2023-07-30T05:18:07;16.40;99.90
21592;DHT22;10958;50.892;3.992;2023-07-30T05:20:35;16.30;99.90
21592;DHT22;10958;50.892;3.992;2023-07-30T05:23:01;16.40;99.90
21592;DHT22;10958;50.892;3.992;2023-07-30T05:25:28;16.60;99.90
21592;DHT22;10958;50.892;3.992;2023-07-30T05:27:56;16.50;99.90
21592;DHT22;10958;50.892;3.992;2023-07-30T05:30:24;16.50;99.90
21592;DHT22;10958;50.892;3.992;2023-07-30T05:32:50;16.60;99.90
21592;DHT22;10958;50.892;3.992;2023-07-30T05:35:16;16.60;99.90
21592;DHT22;10958;50.892;3.992;2023-07-30T05:37:45;16.60;99.90
21592;DHT22;10958;50.892;3.992;2023-07-30T05:40:12;16.70;99.90
21592;DHT22;10958;50.892;3.992;2023-07-30T05:42:40;16.90;99.90
21592;DHT22;10958;50.892;3.992;2023-07-30T05:45:07;16.70;99.90
21592;DHT22;10958;50.892;3.992;2023-07-30T05:47:33;16.70;99.90
21592;DHT22;10958;50.892;3.992;2023-07-30T05:49:59;16.70;99.90
21592;DHT22;10958;50.892;3.992;2023-07-30T05:52:24;16.70;99.90
21592;DHT22;10958;50.892;3.992;2023-07-30T05:54:50;16.80;99.90
21592;DHT22;10958;50.892;3.992;2023-07-30T05:57:18;17.00;99.90
21592;DHT22;10958;50.892;3.992;2023-07-30T05:59:44;17.10;99.90
21592;DHT22;10958;50.892;3.992;2023-07-30T06:02:11;17.00;99.90
21592;DHT22;10958;50.892;3.992;2023-07-30T06:04:39;17.00;99.90
21592;DHT22;10958;50.892;3.992;2023-07-30T06:07:05;17.00;99.90
21592;DHT22;10958;50.892;3.992;2023-07-30T06:09:31;17.00;99.90
21592;DHT22;10958;50.892;3.992;2023-07-30T06:11:59;17.00;99.90
21592;DHT22;10958;50.892;3.992;2023-07-30T06:14:25;16.90;99.90
21592;DHT22;10958;50.892;3.992;2023-07-30T06:16:52;16.90;99.90
21592;DHT22;10958;50.892;3.992;2023-07-30T06:19:18;16.90;99.90
21592;DHT22;10958;50.892;3.992;2023-07-30T06:21:44;17.00;99.90
21592;DHT22;10958;50.892;3.992;2023-07-30T06:24:10;17.10;99.90
21592;DHT22;10958;50.892;3.992;2023-07-30T06:26:35;17.30;99.90
21592;DHT22;10958;50.892;3.992;2023-07-30T06:29:02;17.50;99.90
21592;DHT22;10958;50.892;3.992;2023-07-30T06:31:28;17.60;99.90
21592;DHT22;10958;50.892;3.992;2023-07-30T06:33:54;17.70;99.90
21592;DHT22;10958;50.892;3.992;2023-07-30T06:36:20;17.80;99.90
21592;DHT22;10958;50.892;3.992;2023-07-30T06:38:48;18.00;99.90
21592;DHT22;10958;50.892;3.992;2023-07-30T06:41:15;18.60;99.90
21592;DHT22;10958;50.892;3.992;2023-07-30T06:43:40;19.50;99.90
21592;DHT22;10958;50.892;3.992;2023-07-30T06:46:07;20.00;99.90
21592;DHT22;10958;50.892;3.992;2023-07-30T06:48:32;20.30;99.90
21592;DHT22;10958;50.892;3.992;2023-07-30T06:50:58;20.80;99.90
21592;DHT22;10958;50.892;3.992;2023-07-30T06:53:24;21.20;99.90
21592;DHT22;10958;50.892;3.992;2023-07-30T06:55:50;21.70;99.90
21592;DHT22;10958;50.892;3.992;2023-07-30T06:58:16;21.90;99.90
21592;DHT22;10958;50.892;3.992;2023-07-30T07:00:44;21.60;99.90
21592;DHT22;10958;50.892;3.992;2023-07-30T07:03:10;21.10;99.90
21592;DHT22;10958;50.892;3.992;2023-07-30T07:05:36;21.00;99.90
21592;DHT22;10958;50.892;3.992;2023-07-30T07:08:02;21.00;99.90
21592;DHT22;10958;50.892;3.992;2023-07-30T07:10:27;20.90;99.90
21592;DHT22;10958;50.892;3.992;2023-07-30T07:12:53;20.50;99.90
21592;DHT22;10958;50.892;3.992;2023-07-30T07:15:19;20.00;99.90
21592;DHT22;10958;50.892;3.992;2023-07-30T07:17:44;19.70;99.90
21592;DHT22;10958;50.892;3.992;2023-07-30T07:20:10;19.50;99.90
21592;DHT22;10958;50.892;3.992;2023-07-30T07:22:39;19.40;99.90
21592;DHT22;10958;50.892;3.992;2023-07-30T07:25:05;19.20;99.90
21592;DHT22;10958;50.892;3.992;2023-07-30T07:27:31;19.30;99.90
21592;DHT22;10958;50.892;3.992;2023-07-30T07:29:57;19.30;99.90
21592;DHT22;10958;50.892;3.992;2023-07-30T07:32:23;19.20;99.90
21592;DHT22;10958;50.892;3.992;2023-07-30T07:34:50;19.20;99.90
21592;DHT22;10958;50.892;3.992;2023-07-30T07:37:20;19.10;99.90
21592;DHT22;10958;50.892;3.992;2023-07-30T07:39:46;19.00;99.90
21592;DHT22;10958;50.892;3.992;2023-07-30T07:42:15;19.10;99.90
21592;DHT22;10958;50.892;3.992;2023-07-30T07:44:41;19.10;99.90
21592;DHT22;10958;50.892;3.992;2023-07-30T07:47:09;19.20;99.90
21592;DHT22;10958;50.892;3.992;2023-07-30T07:49:37;19.40;99.90
21592;DHT22;10958;50.892;3.992;2023-07-30T07:52:07;19.70;99.90
21592;DHT22;10958;50.892;3.992;2023-07-30T07:54:34;19.90;99.90
21592;DHT22;10958;50.892;3.992;2023-07-30T07:57:00;19.90;99.90
21592;DHT22;10958;50.892;3.992;2023-07-30T07:59:26;19.80;99.90
21592;DHT22;10958;50.892;3.992;2023-07-30T08:01:53;20.00;99.90
21592;DHT22;10958;50.892;3.992;2023-07-30T08:04:19;20.20;99.90
21592;DHT22;10958;50.892;3.992;2023-07-30T08:06:47;20.10;99.90
21592;DHT22;10958;50.892;3.992;2023-07-30T08:09:13;20.30;99.90
21592;DHT22;10958;50.892;3.992;2023-07-30T08:11:41;20.50;99.90
21592;DHT22;10958;50.892;3.992;2023-07-30T08:14:07;20.70;99.90
21592;DHT22;10958;50.892;3.992;2023-07-30T08:16:33;21.20;99.90
21592;DHT22;10958;50.892;3.992;2023-07-30T08:18:59;20.80;99.90
21592;DHT22;10958;50.892;3.992;2023-07-30T08:21:25;20.40;99.90
21592;DHT22;10958;50.892;3.992;2023-07-30T08:23:50;20.10;99.90
21592;DHT22;10958;50.892;3.992;2023-07-30T08:26:16;19.80;99.90
21592;DHT22;10958;50.892;3.992;2023-07-30T08:28:42;18.90;99.90
21592;DHT22;10958;50.892;3.992;2023-07-30T08:31:07;18.70;99.90
21592;DHT22;10958;50.892;3.992;2023-07-30T08:33:34;18.50;99.90
21592;DHT22;10958;50.892;3.992;2023-07-30T08:35:59;18.50;99.90
21592;DHT22;10958;50.892;3.992;2023-07-30T08:38:25;18.50;99.90
21592;DHT22;10958;50.892;3.992;2023-07-30T08:40:51;18.70;99.90
21592;DHT22;10958;50.892;3.992;2023-07-30T08:43:18;18.50;99.90
21592;DHT22;10958;50.892;3.992;2023-07-30T08:45:45;18.70;99.90
21592;DHT22;10958;50.892;3.992;2023-07-30T08:48:11;18.40;99.90
21592;DHT22;10958;50.892;3.992;2023-07-30T08:50:37;18.10;99.90
21592;DHT22;10958;50.892;3.992;2023-07-30T08:53:03;17.90;99.90
21592;DHT22;10958;50.892;3.992;2023-07-30T08:55:33;17.70;99.90
21592;DHT22;10958;50.892;3.992;2023-07-30T08:58:03;18.10;99.90
21592;DHT22;10958;50.892;3.992;2023-07-30T09:00:33;18.00;99.90
21592;DHT22;10958;50.892;3.992;2023-07-30T09:03:00;18.00;99.90
21592;DHT22;10958;50.892;3.992;2023-07-30T09:05:26;18.10;99.90
21592;DHT22;10958;50.892;3.992;2023-07-30T09:07:58;18.20;99.90
21592;DHT22;10958;50.892;3.992;2023-07-30T09:10:26;18.40;99.90
21592;DHT22;10958;50.892;3.992;2023-07-30T09:12:53;18.20;99.90
21592;DHT22;10958;50.892;3.992;2023-07-30T09:15:32;18.40;99.90
21592;DHT22;10958;50.892;3.992;2023-07-30T09:17:59;18.20;99.90
21592;DHT22;10958;50.892;3.992;2023-07-30T09:20:26;18.30;99.90
21592;DHT22;10958;50.892;3.992;2023-07-30T09:22:52;18.40;99.90
21592;DHT22;10958;50.892;3.992;2023-07-30T09:25:18;18.70;99.90
21592;DHT22;10958;50.892;3.992;2023-07-30T09:27:55;19.30;99.90
21592;DHT22;10958;50.892;3.992;2023-07-30T09:30:25;20.00;99.90
21592;DHT22;10958;50.892;3.992;2023-07-30T09:32:53;20.20;99.90
21592;DHT22;10958;50.892;3.992;2023-07-30T09:35:20;20.10;99.90
21592;DHT22;10958;50.892;3.992;2023-07-30T09:37:50;19.90;99.90
21592;DHT22;10958;50.892;3.992;2023-07-30T09:40:16;19.70;99.90
21592;DHT22;10958;50.892;3.992;2023-07-30T09:42:48;19.80;99.90
21592;DHT22;10958;50.892;3.992;2023-07-30T09:45:20;19.80;99.90
21592;DHT22;10958;50.892;3.992;2023-07-30T09:47:47;19.90;99.90
21592;DHT22;10958;50.892;3.992;2023-07-30T09:50:14;19.80;99.90
21592;DHT22;10958;50.892;3.992;2023-07-30T09:52:42;19.90;99.90
21592;DHT22;10958;50.892;3.992;2023-07-30T09:55:12;20.10;99.90
21592;DHT22;10958;50.892;3.992;2023-07-30T09:57:40;20.90;99.90
21592;DHT22;10958;50.892;3.992;2023-07-30T10:03:35;22.40;99.90
21592;DHT22;10958;50.892;3.992;2023-07-30T10:06:05;22.90;99.90
21592;DHT22;10958;50.892;3.992;2023-07-30T10:08:37;23.10;99.90
21592;DHT22;10958;50.892;3.992;2023-07-30T10:11:05;22.20;99.90
21592;DHT22;10958;50.892;3.992;2023-07-30T10:13:33;21.60;99.90
21592;DHT22;10958;50.892;3.992;2023-07-30T10:15:59;21.20;99.90
21592;DHT22;10958;50.892;3.992;2023-07-30T10:18:42;20.80;99.90
21592;DHT22;10958;50.892;3.992;2023-07-30T10:21:22;21.00;99.90
21592;DHT22;10958;50.892;3.992;2023-07-30T10:24:04;21.00;99.90
21592;DHT22;10958;50.892;3.992;2023-07-30T10:26:35;21.60;99.90
21592;DHT22;10958;50.892;3.992;2023-07-30T10:29:19;22.40;99.90
21592;DHT22;10958;50.892;3.992;2023-07-30T10:31:56;23.10;99.90
21592;DHT22;10958;50.892;3.992;2023-07-30T10:34:43;23.30;99.90
21592;DHT22;10958;50.892;3.992;2023-07-30T10:37:09;23.40;99.90
21592;DHT22;10958;50.892;3.992;2023-07-30T10:39:35;23.50;99.90
21592;DHT22;10958;50.892;3.992;2023-07-30T10:42:01;23.00;99.90
21592;DHT22;10958;50.892;3.992;2023-07-30T10:44:31;22.90;99.90
21592;DHT22;10958;50.892;3.992;2023-07-30T10:46:57;22.70;99.90
21592;DHT22;10958;50.892;3.992;2023-07-30T10:49:24;22.60;99.90
21592;DHT22;10958;50.892;3.992;2023-07-30T10:51:57;22.10;99.90
21592;DHT22;10958;50.892;3.992;2023-07-30T10:54:23;21.70;99.90
21592;DHT22;10958;50.892;3.992;2023-07-30T10:56:49;21.40;99.90
21592;DHT22;10958;50.892;3.992;2023-07-30T10:59:15;21.60;99.90
21592;DHT22;10958;50.892;3.992;2023-07-30T11:01:43;21.70;99.90
21592;DHT22;10958;50.892;3.992;2023-07-30T11:04:09;22.00;99.90
21592;DHT22;10958;50.892;3.992;2023-07-30T11:06:38;22.40;99.90
21592;DHT22;10958;50.892;3.992;2023-07-30T11:09:17;22.50;99.90
21592;DHT22;10958;50.892;3.992;2023-07-30T11:11:45;22.50;99.90
21592;DHT22;10958;50.892;3.992;2023-07-30T11:14:24;22.60;99.90
21592;DHT22;10958;50.892;3.992;2023-07-30T11:16:59;22.70;99.90
21592;DHT22;10958;50.892;3.992;2023-07-30T11:19:28;22.60;99.90
21592;DHT22;10958;50.892;3.992;2023-07-30T11:21:56;22.60;99.90
21592;DHT22;10958;50.892;3.992;2023-07-30T11:24:33;22.50;99.90
21592;DHT22;10958;50.892;3.992;2023-07-30T11:26:59;22.80;99.90
21592;DHT22;10958;50.892;3.992;2023-07-30T11:29:28;23.00;99.90
21592;DHT22;10958;50.892;3.992;2023-07-30T11:31:59;22.90;99.90
21592;DHT22;10958;50.892;3.992;2023-07-30T11:34:26;22.90;99.90
21592;DHT22;10958;50.892;3.992;2023-07-30T11:36:53;22.90;99.90
21592;DHT22;10958;50.892;3.992;2023-07-30T11:39:19;23.00;99.90
21592;DHT22;10958;50.892;3.992;2023-07-30T11:41:46;23.30;99.90
21592;DHT22;10958;50.892;3.992;2023-07-30T11:44:37;23.50;99.90
21592;DHT22;10958;50.892;3.992;2023-07-30T11:47:06;23.60;99.90
21592;DHT22;10958;50.892;3.992;2023-07-30T11:49:34;23.60;99.90
21592;DHT22;10958;50.892;3.992;2023-07-30T11:52:10;23.70;99.90
21592;DHT22;10958;50.892;3.992;2023-07-30T11:54:36;23.60;99.90
21592;DHT22;10958;50.892;3.992;2023-07-30T11:57:08;23.90;99.90
21592;DHT22;10958;50.892;3.992;2023-07-30T11:59:34;24.00;99.90
21592;DHT22;10958;50.892;3.992;2023-07-30T12:02:01;23.60;99.90
21592;DHT22;10958;50.892;3.992;2023-07-30T12:04:43;23.60;99.90
21592;DHT22;10958;50.892;3.992;2023-07-30T12:07:22;23.60;99.90
21592;DHT22;10958;50.892;3.992;2023-07-30T12:09:48;23.80;99.90
21592;DHT22;10958;50.892;3.992;2023-07-30T12:12:14;23.70;99.90
21592;DHT22;10958;50.892;3.992;2023-07-30T12:17:16;23.40;99.90
21592;DHT22;10958;50.892;3.992;2023-07-30T12:19:42;23.30;99.90
21592;DHT22;10958;50.892;3.992;2023-07-30T12:22:08;23.00;99.90
21592;DHT22;10958;50.892;3.992;2023-07-30T12:24:36;23.30;99.90
21592;DHT22;10958;50.892;3.992;2023-07-30T12:27:06;23.40;99.90
21592;DHT22;10958;50.892;3.992;2023-07-30T12:29:32;23.40;99.90
21592;DHT22;10958;50.892;3.992;2023-07-30T12:31:58;23.40;99.90
21592;DHT22;10958;50.892;3.992;2023-07-30T12:34:24;23.40;99.90
21592;DHT22;10958;50.892;3.992;2023-07-30T12:36:54;23.60;99.90
21592;DHT22;10958;50.892;3.992;2023-07-30T12:39:21;23.80;99.90
21592;DHT22;10958;50.892;3.992;2023-07-30T12:41:47;23.80;99.90
21592;DHT22;10958;50.892;3.992;2023-07-30T12:44:15;23.60;99.90
21592;DHT22;10958;50.892;3.992;2023-07-30T12:46:41;23.60;99.90
21592;DHT22;10958;50.892;3.992;2023-07-30T12:49:07;23.80;99.90
21592;DHT22;10958;50.892;3.992;2023-07-30T12:51:33;23.90;99.90
21592;DHT22;10958;50.892;3.992;2023-07-30T12:53:59;23.90;99.90
21592;DHT22;10958;50.892;3.992;2023-07-30T12:56:29;23.80;99.90
21592;DHT22;10958;50.892;3.992;2023-07-30T12:58:55;23.80;99.90
21592;DHT22;10958;50.892;3.992;2023-07-30T13:01:21;24.00;99.90
21592;DHT22;10958;50.892;3.992;2023-07-30T13:03:47;23.70;99.90
21592;DHT22;10958;50.892;3.992;2023-07-30T13:06:14;23.50;99.90
21592;DHT22;10958;50.892;3.992;2023-07-30T13:08:39;23.60;99.90
21592;DHT22;10958;50.892;3.992;2023-07-30T13:11:06;23.50;99.90
21592;DHT22;10958;50.892;3.992;2023-07-30T13:13:31;23.50;99.90
21592;DHT22;10958;50.892;3.992;2023-07-30T13:15:57;23.90;99.90
21592;DHT22;10958;50.892;3.992;2023-07-30T13:18:26;23.90;99.90
21592;DHT22;10958;50.892;3.992;2023-07-30T13:20:54;23.60;99.90
21592;DHT22;10958;50.892;3.992;2023-07-30T13:23:22;23.50;99.90
21592;DHT22;10958;50.892;3.992;2023-07-30T13:25:50;23.70;99.90
21592;DHT22;10958;50.892;3.992;2023-07-30T13:28:16;23.70;99.90
21592;DHT22;10958;50.892;3.992;2023-07-30T13:30:44;23.60;99.90
21592;DHT22;10958;50.892;3.992;2023-07-30T13:33:10;23.70;99.90
21592;DHT22;10958;50.892;3.992;2023-07-30T13:35:57;23.60;99.90
21592;DHT22;10958;50.892;3.992;2023-07-30T13:41:35;23.30;99.90
21592;DHT22;10958;50.892;3.992;2023-07-30T13:50:33;23.40;99.90
21592;DHT22;10958;50.892;3.992;2023-07-30T13:56:43;23.00;99.90
21592;DHT22;10958;50.892;3.992;2023-07-30T13:59:20;23.00;99.90
21592;DHT22;10958;50.892;3.992;2023-07-30T14:02:06;23.00;99.90
21592;DHT22;10958;50.892;3.992;2023-07-30T14:04:39;23.20;99.90
21592;DHT22;10958;50.892;3.992;2023-07-30T14:07:08;23.20;99.90
21592;DHT22;10958;50.892;3.992;2023-07-30T14:09:50;23.20;99.90
21592;DHT22;10958;50.892;3.992;2023-07-30T14:12:19;23.10;99.90
21592;DHT22;10958;50.892;3.992;2023-07-30T14:14:48;23.30;99.90
21592;DHT22;10958;50.892;3.992;2023-07-30T14:17:16;23.20;99.90
21592;DHT22;10958;50.892;3.992;2023-07-30T14:20:01;23.30;99.90
21592;DHT22;10958;50.892;3.992;2023-07-30T14:22:35;23.60;99.90
21592;DHT22;10958;50.892;3.992;2023-07-30T14:25:02;23.20;99.90
21592;DHT22;10958;50.892;3.992;2023-07-30T14:27:37;23.00;99.90
21592;DHT22;10958;50.892;3.992;2023-07-30T14:30:14;23.20;99.90
21592;DHT22;10958;50.892;3.992;2023-07-30T14:32:49;23.20;99.90
21592;DHT22;10958;50.892;3.992;2023-07-30T14:35:37;22.90;99.90
21592;DHT22;10958;50.892;3.992;2023-07-30T14:38:13;22.90;99.90
21592;DHT22;10958;50.892;3.992;2023-07-30T14:44:22;22.80;99.90
21592;DHT22;10958;50.892;3.992;2023-07-30T14:47:35;22.60;99.90
21592;DHT22;10958;50.892;3.992;2023-07-30T14:50:13;22.60;99.90
21592;DHT22;10958;50.892;3.992;2023-07-30T14:52:41;22.60;99.90
21592;DHT22;10958;50.892;3.992;2023-07-30T14:55:15;22.50;99.90
21592;DHT22;10958;50.892;3.992;2023-07-30T14:57:44;22.20;99.90
21592;DHT22;10958;50.892;3.992;2023-07-30T15:00:24;22.20;99.90
21592;DHT22;10958;50.892;3.992;2023-07-30T15:02:56;22.30;99.90
21592;DHT22;10958;50.892;3.992;2023-07-30T15:05:22;22.10;99.90
21592;DHT22;10958;50.892;3.992;2023-07-30T15:07:48;21.80;99.90
21592;DHT22;10958;50.892;3.992;2023-07-30T15:10:16;21.80;99.90
21592;DHT22;10958;50.892;3.992;2023-07-30T15:13:00;21.90;99.90
21592;DHT22;10958;50.892;3.992;2023-07-30T15:15:36;21.70;99.90
21592;DHT22;10958;50.892;3.992;2023-07-30T15:18:14;21.60;99.90
21592;DHT22;10958;50.892;3.992;2023-07-30T15:20:52;21.60;99.90
21592;DHT22;10958;50.892;3.992;2023-07-30T15:23:18;21.30;99.90
21592;DHT22;10958;50.892;3.992;2023-07-30T15:25:47;21.20;99.90
21592;DHT22;10958;50.892;3.992;2023-07-30T15:28:35;21.30;99.90
21592;DHT22;10958;50.892;3.992;2023-07-30T15:31:07;21.20;99.90
21592;DHT22;10958;50.892;3.992;2023-07-30T15:33:35;21.10;99.90
21592;DHT22;10958;50.892;3.992;2023-07-30T15:36:01;21.10;99.90
21592;DHT22;10958;50.892;3.992;2023-07-30T15:41:52;20.90;99.90
21592;DHT22;10958;50.892;3.992;2023-07-30T15:44:23;21.10;99.90
21592;DHT22;10958;50.892;3.992;2023-07-30T15:47:28;20.90;99.90
21592;DHT22;10958;50.892;3.992;2023-07-30T15:50:12;20.70;99.90
21592;DHT22;10958;50.892;3.992;2023-07-30T15:52:54;20.70;99.90
21592;DHT22;10958;50.892;3.992;2023-07-30T15:55:20;20.20;99.90
21592;DHT22;10958;50.892;3.992;2023-07-30T15:57:46;19.90;99.90
21592;DHT22;10958;50.892;3.992;2023-07-30T16:00:12;19.60;99.90
21592;DHT22;10958;50.892;3.992;2023-07-30T16:02:44;19.50;99.90